sensor_id;sensor_type;location;lat;lon;timestamp;pressure;altitude;pressure_sealevel;temperature;humidity
69855;BME280;57146;48.140;16.304;2023-06-22T00:02:27;99653.38;;;22.59;71.49
69855;BME280;57146;48.140;16.304;2023-06-22T00:04:55;99654.47;;;22.58;71.50
69855;BME280;57146;48.140;16.304;2023-06-22T00:07:22;99657.56;;;22.57;71.60
69855;BME280;57146;48.140;16.304;2023-06-22T00:09:52;99658.66;;;22.52;71.87
69855;BME280;57146;48.140;16.304;2023-06-22T00:12:19;99652.16;;;22.53;71.67
69855;BME280;57146;48.140;16.304;2023-06-22T00:14:47;99647.16;;;22.52;71.87
69855;BME280;57146;48.140;16.304;2023-06-22T00:17:14;99640.63;;;22.49;71.85
69855;BME280;57146;48.140;16.304;2023-06-22T00:19:41;99646.31;;;22.44;71.94
69855;BME280;57146;48.140;16.304;2023-06-22T00:22:08;99643.97;;;22.39;72.26
69855;BME280;57146;48.140;16.304;2023-06-22T00:24:35;99645.41;;;22.29;72.41
69855;BME280;57146;48.140;16.304;2023-06-22T00:27:02;99643.88;;;22.28;72.72
69855;BME280;57146;48.140;16.304;2023-06-22T00:29:30;99650.41;;;22.27;72.65
69855;BME280;57146;48.140;16.304;2023-06-22T00:31:57;99650.72;;;22.22;73.01
69855;BME280;57146;48.140;16.304;2023-06-22T00:34:24;99645.69;;;22.17;73.15
69855;BME280;57146;48.140;16.304;2023-06-22T00:36:51;99637.66;;;22.17;73.04
69855;BME280;57146;48.140;16.304;2023-06-22T00:39:19;99636.88;;;22.16;73.08
69855;BME280;57146;48.140;16.304;2023-06-22T00:41:46;99635.16;;;22.01;73.35
69855;BME280;57146;48.140;16.304;2023-06-22T00:44:12;99638.09;;;21.89;73.84
69855;BME280;57146;48.140;16.304;2023-06-22T00:46:40;99628.91;;;21.90;73.80
69855;BME280;57146;48.140;16.304;2023-06-22T00:49:07;99636.97;;;21.90;73.69
69855;BME280;57146;48.140;16.304;2023-06-22T00:51:34;99633.50;;;21.89;73.82
69855;BME280;57146;48.140;16.304;2023-06-22T00:54:01;99640.06;;;21.92;73.73
69855;BME280;57146;48.140;16.304;2023-06-22T00:56:32;99634.31;;;21.93;73.82
69855;BME280;57146;48.140;16.304;2023-06-22T00:59:01;99641.16;;;21.91;73.79
69855;BME280;57146;48.140;16.304;2023-06-22T01:01:28;99637.66;;;21.83;74.00
69855;BME280;57146;48.140;16.304;2023-06-22T01:03:55;99638.84;;;21.86;73.91
69855;BME280;57146;48.140;16.304;2023-06-22T01:06:28;99638.84;;;21.86;73.99
69855;BME280;57146;48.140;16.304;2023-06-22T01:09:15;99630.41;;;21.87;73.98
69855;BME280;57146;48.140;16.304;2023-06-22T01:12:07;99620.19;;;21.63;74.86
69855;BME280;57146;48.140;16.304;2023-06-22T01:14:42;99624.59;;;21.48;74.56
69855;BME280;57146;48.140;16.304;2023-06-22T01:17:15;99620.44;;;21.50;73.97
69855;BME280;57146;48.140;16.304;2023-06-22T01:19:49;99614.75;;;21.56;73.88
69855;BME280;57146;48.140;16.304;2023-06-22T01:22:18;99617.84;;;21.58;73.38
69855;BME280;57146;48.140;16.304;2023-06-22T01:25:09;99621.50;;;21.42;73.42
69855;BME280;57146;48.140;16.304;2023-06-22T01:30:05;99611.06;;;21.37;73.61
69855;BME280;57146;48.140;16.304;2023-06-22T01:32:35;99603.56;;;21.46;73.49
69855;BME280;57146;48.140;16.304;2023-06-22T01:35:07;99603.59;;;21.50;73.12
69855;BME280;57146;48.140;16.304;2023-06-22T01:37:35;99603.25;;;21.55;73.05
69855;BME280;57146;48.140;16.304;2023-06-22T01:40:05;99613.88;;;21.48;73.04
69855;BME280;57146;48.140;16.304;2023-06-22T01:42:33;99629.91;;;21.44;73.24
69855;BME280;57146;48.140;16.304;2023-06-22T01:45:01;99618.09;;;21.45;72.95
69855;BME280;57146;48.140;16.304;2023-06-22T01:47:29;99616.94;;;21.46;72.75
69855;BME280;57146;48.140;16.304;2023-06-22T01:49:57;99613.06;;;21.44;72.68
69855;BME280;57146;48.140;16.304;2023-06-22T01:52:24;99602.38;;;21.44;72.73
69855;BME280;57146;48.140;16.304;2023-06-22T01:54:51;99607.69;;;21.40;72.56
69855;BME280;57146;48.140;16.304;2023-06-22T01:57:20;99609.44;;;21.29;73.09
69855;BME280;57146;48.140;16.304;2023-06-22T02:00:02;99608.63;;;21.25;73.29
69855;BME280;57146;48.140;16.304;2023-06-22T02:03:00;99611.97;;;21.18;73.61
69855;BME280;57146;48.140;16.304;2023-06-22T02:05:36;99603.41;;;21.09;74.05
69855;BME280;57146;48.140;16.304;2023-06-22T02:08:12;99602.91;;;21.00;74.31
69855;BME280;57146;48.140;16.304;2023-06-22T02:10:41;99606.31;;;20.97;74.61
69855;BME280;57146;48.140;16.304;2023-06-22T02:13:11;99610.53;;;20.98;74.31
69855;BME280;57146;48.140;16.304;2023-06-22T02:15:39;99599.47;;;20.99;74.42
69855;BME280;57146;48.140;16.304;2023-06-22T02:18:12;99600.59;;;20.98;74.67
69855;BME280;57146;48.140;16.304;2023-06-22T02:20:40;99591.78;;;20.98;74.64
69855;BME280;57146;48.140;16.304;2023-06-22T02:23:07;99595.66;;;21.00;74.33
69855;BME280;57146;48.140;16.304;2023-06-22T02:25:35;99602.09;;;20.96;74.46
69855;BME280;57146;48.140;16.304;2023-06-22T02:28:03;99603.53;;;20.90;74.50
69855;BME280;57146;48.140;16.304;2023-06-22T02:30:30;99615.44;;;20.92;74.48
69855;BME280;57146;48.140;16.304;2023-06-22T02:32:59;99607.69;;;20.87;74.99
69855;BME280;57146;48.140;16.304;2023-06-22T02:35:28;99596.59;;;20.85;74.90
69855;BME280;57146;48.140;16.304;2023-06-22T02:37:59;99599.63;;;20.84;75.03
69855;BME280;57146;48.140;16.304;2023-06-22T02:40:27;99597.31;;;20.82;74.75
69855;BME280;57146;48.140;16.304;2023-06-22T02:42:56;99593.34;;;20.72;75.40
69855;BME280;57146;48.140;16.304;2023-06-22T02:45:23;99592.88;;;20.67;75.53
69855;BME280;57146;48.140;16.304;2023-06-22T02:47:51;99597.94;;;20.72;75.37
69855;BME280;57146;48.140;16.304;2023-06-22T02:50:20;99610.09;;;20.69;75.45
69855;BME280;57146;48.140;16.304;2023-06-22T02:52:48;99608.09;;;20.63;75.88
69855;BME280;57146;48.140;16.304;2023-06-22T02:55:15;99601.53;;;20.56;76.27
69855;BME280;57146;48.140;16.304;2023-06-22T02:57:53;99599.19;;;20.55;76.25
69855;BME280;57146;48.140;16.304;2023-06-22T03:00:24;99602.28;;;20.57;76.14
69855;BME280;57146;48.140;16.304;2023-06-22T03:03:15;99590.78;;;20.53;76.09
69855;BME280;57146;48.140;16.304;2023-06-22T03:05:42;99595.81;;;20.58;76.10
69855;BME280;57146;48.140;16.304;2023-06-22T03:08:09;99591.59;;;20.57;75.89
69855;BME280;57146;48.140;16.304;2023-06-22T03:10:36;99583.56;;;20.57;75.73
69855;BME280;57146;48.140;16.304;2023-06-22T03:13:05;99592.75;;;20.60;75.89
69855;BME280;57146;48.140;16.304;2023-06-22T03:15:32;99595.59;;;20.47;76.13
69855;BME280;57146;48.140;16.304;2023-06-22T03:17:59;99596.03;;;20.49;76.01
69855;BME280;57146;48.140;16.304;2023-06-22T03:20:26;99598.28;;;20.47;76.11
69855;BME280;57146;48.140;16.304;2023-06-22T03:22:54;99599.03;;;20.48;76.48
69855;BME280;57146;48.140;16.304;2023-06-22T03:25:22;99615.56;;;20.50;76.41
69855;BME280;57146;48.140;16.304;2023-06-22T03:27:50;99598.59;;;20.42;76.76
69855;BME280;57146;48.140;16.304;2023-06-22T03:30:17;99595.56;;;20.44;76.53
69855;BME280;57146;48.140;16.304;2023-06-22T03:33:09;99595.13;;;20.42;76.83
69855;BME280;57146;48.140;16.304;2023-06-22T03:35:36;99597.41;;;20.40;77.28
69855;BME280;57146;48.140;16.304;2023-06-22T03:38:03;99595.84;;;20.39;77.05
69855;BME280;57146;48.140;16.304;2023-06-22T03:40:31;99588.28;;;20.44;77.13
69855;BME280;57146;48.140;16.304;2023-06-22T03:42:58;99597.78;;;20.42;76.96
69855;BME280;57146;48.140;16.304;2023-06-22T03:45:25;99600.47;;;20.42;77.38
69855;BME280;57146;48.140;16.304;2023-06-22T03:47:54;99592.50;;;20.45;77.34
69855;BME280;57146;48.140;16.304;2023-06-22T03:50:22;99597.50;;;20.47;77.42
69855;BME280;57146;48.140;16.304;2023-06-22T03:52:50;99602.56;;;20.52;77.60
69855;BME280;57146;48.140;16.304;2023-06-22T03:55:17;99606.44;;;20.54;78.31
69855;BME280;57146;48.140;16.304;2023-06-22T03:57:44;99598.84;;;20.56;78.96
69855;BME280;57146;48.140;16.304;2023-06-22T04:00:11;99602.63;;;20.55;79.16
69855;BME280;57146;48.140;16.304;2023-06-22T04:02:41;99601.16;;;20.58;79.56
69855;BME280;57146;48.140;16.304;2023-06-22T04:05:09;99600.06;;;20.63;79.43
69855;BME280;57146;48.140;16.304;2023-06-22T04:07:36;99599.34;;;20.66;79.81
69855;BME280;57146;48.140;16.304;2023-06-22T04:10:04;99595.97;;;20.69;79.98
69855;BME280;57146;48.140;16.304;2023-06-22T04:12:34;99592.97;;;20.74;80.47
69855;BME280;57146;48.140;16.304;2023-06-22T04:15:01;99581.94;;;20.75;80.28
69855;BME280;57146;48.140;16.304;2023-06-22T04:17:30;99586.84;;;20.73;80.22
69855;BME280;57146;48.140;16.304;2023-06-22T04:19:57;99575.75;;;20.71;80.26
69855;BME280;57146;48.140;16.304;2023-06-22T04:22:24;99572.72;;;20.73;80.57
69855;BME280;57146;48.140;16.304;2023-06-22T04:24:51;99566.91;;;20.67;80.66
69855;BME280;57146;48.140;16.304;2023-06-22T04:27:19;99565.00;;;20.68;80.70
69855;BME280;57146;48.140;16.304;2023-06-22T04:29:47;99560.81;;;20.70;80.75
69855;BME280;57146;48.140;16.304;2023-06-22T04:32:17;99566.91;;;20.67;80.81
69855;BME280;57146;48.140;16.304;2023-06-22T04:34:44;99573.84;;;20.72;81.13
69855;BME280;57146;48.140;16.304;2023-06-22T04:37:11;99579.59;;;20.74;80.70
69855;BME280;57146;48.140;16.304;2023-06-22T04:39:39;99580.03;;;20.76;80.58
69855;BME280;57146;48.140;16.304;2023-06-22T04:42:06;99590.56;;;20.65;80.17
69855;BME280;57146;48.140;16.304;2023-06-22T04:44:33;99593.13;;;20.58;80.51
69855;BME280;57146;48.140;16.304;2023-06-22T04:47:01;99597.00;;;20.61;80.10
69855;BME280;57146;48.140;16.304;2023-06-22T04:49:28;99592.16;;;20.70;80.59
69855;BME280;57146;48.140;16.304;2023-06-22T04:51:57;99589.59;;;20.77;80.34
69855;BME280;57146;48.140;16.304;2023-06-22T04:54:24;99595.81;;;20.85;79.58
69855;BME280;57146;48.140;16.304;2023-06-22T04:56:53;99598.97;;;20.90;79.60
69855;BME280;57146;48.140;16.304;2023-06-22T04:59:20;99594.06;;;20.96;79.02
69855;BME280;57146;48.140;16.304;2023-06-22T05:01:47;99596.38;;;20.97;78.42
69855;BME280;57146;48.140;16.304;2023-06-22T05:04:13;99599.06;;;20.97;78.49
69855;BME280;57146;48.140;16.304;2023-06-22T05:06:41;99603.31;;;21.02;78.31
69855;BME280;57146;48.140;16.304;2023-06-22T05:09:08;99611.06;;;21.07;77.93
69855;BME280;57146;48.140;16.304;2023-06-22T05:11:35;99611.88;;;21.11;77.83
69855;BME280;57146;48.140;16.304;2023-06-22T05:14:02;99615.31;;;21.12;78.03
69855;BME280;57146;48.140;16.304;2023-06-22T05:16:29;99610.44;;;21.17;78.02
69855;BME280;57146;48.140;16.304;2023-06-22T05:18:56;99619.66;;;21.23;77.69
69855;BME280;57146;48.140;16.304;2023-06-22T05:21:25;99611.34;;;21.28;78.06
69855;BME280;57146;48.140;16.304;2023-06-22T05:23:56;99613.72;;;21.34;78.23
69855;BME280;57146;48.140;16.304;2023-06-22T05:26:26;99613.41;;;21.39;78.88
69855;BME280;57146;48.140;16.304;2023-06-22T05:28:54;99610.06;;;21.45;79.11
69855;BME280;57146;48.140;16.304;2023-06-22T05:31:21;99604.38;;;21.50;78.39
69855;BME280;57146;48.140;16.304;2023-06-22T05:33:51;99594.88;;;21.57;78.19
69855;BME280;57146;48.140;16.304;2023-06-22T05:36:19;99593.78;;;21.61;77.21
69855;BME280;57146;48.140;16.304;2023-06-22T05:38:49;99603.84;;;21.71;77.87
69855;BME280;57146;48.140;16.304;2023-06-22T05:41:16;99599.75;;;21.81;78.08
69855;BME280;57146;48.140;16.304;2023-06-22T05:43:43;99597.97;;;21.96;77.54
69855;BME280;57146;48.140;16.304;2023-06-22T05:46:10;99596.13;;;22.04;77.30
69855;BME280;57146;48.140;16.304;2023-06-22T05:48:37;99610.38;;;22.11;77.31
69855;BME280;57146;48.140;16.304;2023-06-22T05:51:04;99611.22;;;22.19;76.69
69855;BME280;57146;48.140;16.304;2023-06-22T05:53:32;99603.69;;;22.32;76.46
69855;BME280;57146;48.140;16.304;2023-06-22T05:56:00;99606.03;;;22.37;75.17
69855;BME280;57146;48.140;16.304;2023-06-22T05:58:27;99598.44;;;22.46;75.16
69855;BME280;57146;48.140;16.304;2023-06-22T06:00:54;99604.63;;;22.54;74.75
69855;BME280;57146;48.140;16.304;2023-06-22T06:03:21;99605.88;;;22.63;74.35
69855;BME280;57146;48.140;16.304;2023-06-22T06:05:48;99606.72;;;22.75;73.49
69855;BME280;57146;48.140;16.304;2023-06-22T06:08:40;99614.09;;;22.88;73.27
69855;BME280;57146;48.140;16.304;2023-06-22T06:11:08;99606.84;;;22.92;71.54
69855;BME280;57146;48.140;16.304;2023-06-22T06:13:35;99617.22;;;22.98;72.15
69855;BME280;57146;48.140;16.304;2023-06-22T06:16:02;99611.56;;;23.10;73.40
69855;BME280;57146;48.140;16.304;2023-06-22T06:18:29;99621.19;;;23.18;73.86
69855;BME280;57146;48.140;16.304;2023-06-22T06:21:00;99615.09;;;23.28;75.02
69855;BME280;57146;48.140;16.304;2023-06-22T06:23:27;99616.66;;;23.36;73.50
69855;BME280;57146;48.140;16.304;2023-06-22T06:25:55;99616.31;;;23.41;73.80
69855;BME280;57146;48.140;16.304;2023-06-22T06:28:24;99622.84;;;23.51;72.58
69855;BME280;57146;48.140;16.304;2023-06-22T06:30:51;99629.81;;;23.59;73.35
69855;BME280;57146;48.140;16.304;2023-06-22T06:33:19;99630.16;;;23.54;74.63
69855;BME280;57146;48.140;16.304;2023-06-22T06:35:47;99616.41;;;23.66;74.47
69855;BME280;57146;48.140;16.304;2023-06-22T06:38:14;99619.91;;;23.74;72.91
69855;BME280;57146;48.140;16.304;2023-06-22T06:40:41;99617.25;;;23.85;72.71
69855;BME280;57146;48.140;16.304;2023-06-22T06:43:08;99608.03;;;23.93;71.82
69855;BME280;57146;48.140;16.304;2023-06-22T06:45:34;99596.94;;;23.95;71.19
69855;BME280;57146;48.140;16.304;2023-06-22T06:48:02;99593.47;;;24.05;71.12
69855;BME280;57146;48.140;16.304;2023-06-22T06:50:29;99593.09;;;24.17;70.87
69855;BME280;57146;48.140;16.304;2023-06-22T06:52:57;99593.88;;;24.32;70.59
69855;BME280;57146;48.140;16.304;2023-06-22T06:55:24;99590.06;;;24.47;69.03
69855;BME280;57146;48.140;16.304;2023-06-22T06:57:51;99588.53;;;24.53;68.30
69855;BME280;57146;48.140;16.304;2023-06-22T07:00:18;99595.81;;;24.60;68.12
69855;BME280;57146;48.140;16.304;2023-06-22T07:02:45;99590.81;;;24.66;67.39
69855;BME280;57146;48.140;16.304;2023-06-22T07:05:12;99595.81;;;24.71;65.98
69855;BME280;57146;48.140;16.304;2023-06-22T07:07:40;99593.50;;;24.80;65.40
69855;BME280;57146;48.140;16.304;2023-06-22T07:10:07;99590.41;;;24.89;66.40
69855;BME280;57146;48.140;16.304;2023-06-22T07:12:34;99583.81;;;24.97;65.84
69855;BME280;57146;48.140;16.304;2023-06-22T07:17:29;99582.66;;;25.16;66.79
69855;BME280;57146;48.140;16.304;2023-06-22T07:19:57;99589.56;;;25.24;65.28
69855;BME280;57146;48.140;16.304;2023-06-22T07:22:24;99587.22;;;25.29;63.73
69855;BME280;57146;48.140;16.304;2023-06-22T07:24:50;99585.28;;;25.34;64.01
69855;BME280;57146;48.140;16.304;2023-06-22T07:27:18;99583.69;;;25.43;65.25
69855;BME280;57146;48.140;16.304;2023-06-22T07:29:45;99587.91;;;25.51;64.38
69855;BME280;57146;48.140;16.304;2023-06-22T07:32:12;99581.69;;;25.62;63.34
69855;BME280;57146;48.140;16.304;2023-06-22T07:34:40;99582.44;;;25.62;62.55
69855;BME280;57146;48.140;16.304;2023-06-22T07:37:07;99585.91;;;25.66;63.74
69855;BME280;57146;48.140;16.304;2023-06-22T07:39:34;99581.59;;;25.76;63.56
69855;BME280;57146;48.140;16.304;2023-06-22T07:42:01;99587.34;;;25.85;62.72
69855;BME280;57146;48.140;16.304;2023-06-22T07:44:28;99581.56;;;25.90;63.33
69855;BME280;57146;48.140;16.304;2023-06-22T07:46:54;99578.00;;;26.00;62.88
69855;BME280;57146;48.140;16.304;2023-06-22T07:49:21;99581.41;;;26.12;62.49
69855;BME280;57146;48.140;16.304;2023-06-22T07:52:13;99574.03;;;26.16;61.76
69855;BME280;57146;48.140;16.304;2023-06-22T07:54:41;99571.34;;;26.16;61.53
69855;BME280;57146;48.140;16.304;2023-06-22T07:57:08;99570.16;;;26.17;62.11
69855;BME280;57146;48.140;16.304;2023-06-22T07:59:35;99579.72;;;26.25;62.13
69855;BME280;57146;48.140;16.304;2023-06-22T08:02:02;99568.53;;;26.30;61.08
69855;BME280;57146;48.140;16.304;2023-06-22T08:04:29;99574.28;;;26.32;62.45
69855;BME280;57146;48.140;16.304;2023-06-22T08:06:56;99572.66;;;26.42;61.84
69855;BME280;57146;48.140;16.304;2023-06-22T08:09:23;99571.06;;;26.52;62.42
69855;BME280;57146;48.140;16.304;2023-06-22T08:11:50;99567.88;;;26.60;62.36
69855;BME280;57146;48.140;16.304;2023-06-22T08:14:17;99572.03;;;26.72;62.66
69855;BME280;57146;48.140;16.304;2023-06-22T08:16:44;99565.78;;;26.79;61.01
69855;BME280;57146;48.140;16.304;2023-06-22T08:19:12;99564.94;;;26.85;59.83
69855;BME280;57146;48.140;16.304;2023-06-22T08:21:39;99575.72;;;26.85;58.38
69855;BME280;57146;48.140;16.304;2023-06-22T08:24:06;99584.94;;;26.91;58.17
69855;BME280;57146;48.140;16.304;2023-06-22T08:26:34;99582.97;;;26.95;58.46
69855;BME280;57146;48.140;16.304;2023-06-22T08:29:09;99580.25;;;26.95;59.58
69855;BME280;57146;48.140;16.304;2023-06-22T08:31:36;99579.41;;;27.02;59.41
69855;BME280;57146;48.140;16.304;2023-06-22T08:34:04;99573.25;;;27.02;58.33
69855;BME280;57146;48.140;16.304;2023-06-22T08:36:31;99578.19;;;27.07;59.21
69855;BME280;57146;48.140;16.304;2023-06-22T08:38:58;99574.34;;;27.08;59.06
69855;BME280;57146;48.140;16.304;2023-06-22T08:41:26;99569.69;;;27.12;59.03
69855;BME280;57146;48.140;16.304;2023-06-22T08:43:54;99568.06;;;27.18;58.90
69855;BME280;57146;48.140;16.304;2023-06-22T08:46:21;99566.81;;;27.26;59.33
69855;BME280;57146;48.140;16.304;2023-06-22T08:48:48;99566.69;;;27.37;58.09
69855;BME280;57146;48.140;16.304;2023-06-22T08:51:15;99572.75;;;27.44;57.76
69855;BME280;57146;48.140;16.304;2023-06-22T08:53:48;99565.06;;;27.43;57.03
69855;BME280;57146;48.140;16.304;2023-06-22T08:56:15;99561.44;;;27.53;57.16
69855;BME280;57146;48.140;16.304;2023-06-22T08:58:43;99546.81;;;27.51;57.23
69855;BME280;57146;48.140;16.304;2023-06-22T09:01:10;99559.16;;;27.52;56.73
69855;BME280;57146;48.140;16.304;2023-06-22T09:03:37;99544.09;;;27.51;57.38
69855;BME280;57146;48.140;16.304;2023-06-22T09:06:05;99545.91;;;27.61;56.34
69855;BME280;57146;48.140;16.304;2023-06-22T09:08:32;99557.72;;;27.70;56.07
69855;BME280;57146;48.140;16.304;2023-06-22T09:11:01;99548.44;;;27.72;54.87
69855;BME280;57146;48.140;16.304;2023-06-22T09:13:30;99554.88;;;27.81;55.09
69855;BME280;57146;48.140;16.304;2023-06-22T09:15:59;99548.59;;;27.88;55.48
69855;BME280;57146;48.140;16.304;2023-06-22T09:18:26;99553.91;;;27.95;54.62
69855;BME280;57146;48.140;16.304;2023-06-22T09:20:54;99549.63;;;27.98;55.19
69855;BME280;57146;48.140;16.304;2023-06-22T09:23:21;99553.84;;;27.99;53.45
69855;BME280;57146;48.140;16.304;2023-06-22T09:25:50;99551.38;;;28.08;53.86
69855;BME280;57146;48.140;16.304;2023-06-22T09:28:18;99547.94;;;28.07;53.49
69855;BME280;57146;48.140;16.304;2023-06-22T09:30:45;99542.78;;;28.13;51.89
69855;BME280;57146;48.140;16.304;2023-06-22T09:33:12;99534.22;;;28.18;51.67
69855;BME280;57146;48.140;16.304;2023-06-22T09:35:40;99532.97;;;28.23;52.16
69855;BME280;57146;48.140;16.304;2023-06-22T09:38:08;99537.13;;;28.27;52.28
69855;BME280;57146;48.140;16.304;2023-06-22T09:40:36;99527.00;;;28.31;53.33
69855;BME280;57146;48.140;16.304;2023-06-22T09:43:03;99535.41;;;28.40;51.16
69855;BME280;57146;48.140;16.304;2023-06-22T09:45:30;99534.44;;;28.51;50.93
69855;BME280;57146;48.140;16.304;2023-06-22T09:47:57;99533.75;;;28.47;50.19
69855;BME280;57146;48.140;16.304;2023-06-22T09:50:24;99529.84;;;28.48;50.32
69855;BME280;57146;48.140;16.304;2023-06-22T09:52:51;99522.09;;;28.50;49.74
69855;BME280;57146;48.140;16.304;2023-06-22T09:55:18;99529.78;;;28.51;51.63
69855;BME280;57146;48.140;16.304;2023-06-22T09:57:46;99518.06;;;28.58;51.72
69855;BME280;57146;48.140;16.304;2023-06-22T10:00:16;99522.22;;;28.62;50.07
69855;BME280;57146;48.140;16.304;2023-06-22T10:02:44;99515.50;;;28.51;49.30
69855;BME280;57146;48.140;16.304;2023-06-22T10:05:12;99505.78;;;28.53;50.78
69855;BME280;57146;48.140;16.304;2023-06-22T10:07:40;99511.97;;;28.54;50.71
69855;BME280;57146;48.140;16.304;2023-06-22T10:10:08;99515.63;;;28.63;51.39
69855;BME280;57146;48.140;16.304;2023-06-22T10:12:35;99511.00;;;28.64;50.27
69855;BME280;57146;48.140;16.304;2023-06-22T10:15:02;99521.09;;;28.60;50.36
69855;BME280;57146;48.140;16.304;2023-06-22T10:17:30;99503.56;;;28.68;51.57
69855;BME280;57146;48.140;16.304;2023-06-22T10:19:57;99511.53;;;28.75;50.92
69855;BME280;57146;48.140;16.304;2023-06-22T10:22:25;99519.31;;;28.73;50.21
69855;BME280;57146;48.140;16.304;2023-06-22T10:24:52;99506.53;;;28.74;50.00
69855;BME280;57146;48.140;16.304;2023-06-22T10:27:19;99513.44;;;28.78;50.35
69855;BME280;57146;48.140;16.304;2023-06-22T10:29:46;99501.81;;;28.78;49.82
69855;BME280;57146;48.140;16.304;2023-06-22T10:32:13;99509.84;;;28.81;49.63
69855;BME280;57146;48.140;16.304;2023-06-22T10:34:40;99506.69;;;28.86;49.53
69855;BME280;57146;48.140;16.304;2023-06-22T10:37:07;99506.75;;;28.83;49.30
69855;BME280;57146;48.140;16.304;2023-06-22T10:39:35;99511.75;;;28.84;49.39
69855;BME280;57146;48.140;16.304;2023-06-22T10:42:02;99494.31;;;28.85;49.53
69855;BME280;57146;48.140;16.304;2023-06-22T10:44:29;99505.50;;;28.87;49.53
69855;BME280;57146;48.140;16.304;2023-06-22T10:46:56;99499.59;;;28.93;49.49
69855;BME280;57146;48.140;16.304;2023-06-22T10:49:25;99492.50;;;28.99;49.75
69855;BME280;57146;48.140;16.304;2023-06-22T10:51:52;99492.78;;;29.04;49.86
69855;BME280;57146;48.140;16.304;2023-06-22T10:54:23;99491.13;;;29.10;49.27
69855;BME280;57146;48.140;16.304;2023-06-22T10:56:50;99493.56;;;29.05;49.98
69855;BME280;57146;48.140;16.304;2023-06-22T10:59:17;99493.13;;;29.06;50.07
69855;BME280;57146;48.140;16.304;2023-06-22T11:01:44;99485.84;;;29.03;50.10
69855;BME280;57146;48.140;16.304;2023-06-22T11:04:12;99484.75;;;29.01;50.53
69855;BME280;57146;48.140;16.304;2023-06-22T11:06:39;99478.13;;;29.02;50.01
69855;BME280;57146;48.140;16.304;2023-06-22T11:09:06;99474.94;;;29.07;50.96
69855;BME280;57146;48.140;16.304;2023-06-22T11:11:37;99464.44;;;29.09;50.61
69855;BME280;57146;48.140;16.304;2023-06-22T11:14:05;99466.28;;;29.12;50.15
69855;BME280;57146;48.140;16.304;2023-06-22T11:16:32;99460.44;;;29.14;50.68
69855;BME280;57146;48.140;16.304;2023-06-22T11:18:59;99444.03;;;29.21;50.23
69855;BME280;57146;48.140;16.304;2023-06-22T11:21:28;99447.84;;;29.23;49.69
69855;BME280;57146;48.140;16.304;2023-06-22T11:23:55;99447.84;;;29.23;48.88
69855;BME280;57146;48.140;16.304;2023-06-22T11:26:25;99436.16;;;29.26;48.58
69855;BME280;57146;48.140;16.304;2023-06-22T11:28:51;99445.13;;;29.23;48.50
69855;BME280;57146;48.140;16.304;2023-06-22T11:31:19;99444.81;;;29.21;49.16
69855;BME280;57146;48.140;16.304;2023-06-22T11:33:56;99445.13;;;29.23;49.56
69855;BME280;57146;48.140;16.304;2023-06-22T11:36:23;99451.66;;;29.26;49.42
69855;BME280;57146;48.140;16.304;2023-06-22T11:38:51;99441.22;;;29.24;48.85
69855;BME280;57146;48.140;16.304;2023-06-22T11:41:18;99439.38;;;29.21;48.86
69855;BME280;57146;48.140;16.304;2023-06-22T11:43:46;99435.13;;;29.20;48.71
69855;BME280;57146;48.140;16.304;2023-06-22T11:46:14;99450.41;;;29.30;49.28
69855;BME280;57146;48.140;16.304;2023-06-22T11:48:41;99429.06;;;29.32;49.92
69855;BME280;57146;48.140;16.304;2023-06-22T11:51:09;99437.28;;;29.29;48.75
69855;BME280;57146;48.140;16.304;2023-06-22T11:53:36;99431.00;;;29.32;49.87
69855;BME280;57146;48.140;16.304;2023-06-22T11:56:03;99432.72;;;29.42;49.78
69855;BME280;57146;48.140;16.304;2023-06-22T11:58:30;99432.09;;;29.51;49.90
69855;BME280;57146;48.140;16.304;2023-06-22T12:00:58;99425.75;;;29.57;49.56
69855;BME280;57146;48.140;16.304;2023-06-22T12:03:24;99428.72;;;29.63;49.50
69855;BME280;57146;48.140;16.304;2023-06-22T12:05:52;99419.91;;;29.59;48.39
69855;BME280;57146;48.140;16.304;2023-06-22T12:08:19;99424.09;;;29.64;48.51
69855;BME280;57146;48.140;16.304;2023-06-22T12:10:49;99424.50;;;29.62;47.88
69855;BME280;57146;48.140;16.304;2023-06-22T12:13:16;99419.22;;;29.55;47.89
69855;BME280;57146;48.140;16.304;2023-06-22T12:15:43;99430.78;;;29.59;47.84
69855;BME280;57146;48.140;16.304;2023-06-22T12:18:11;99421.78;;;29.62;47.43
69855;BME280;57146;48.140;16.304;2023-06-22T12:20:40;99423.75;;;29.62;47.29
69855;BME280;57146;48.140;16.304;2023-06-22T12:23:07;99422.97;;;29.61;47.96
69855;BME280;57146;48.140;16.304;2023-06-22T12:25:34;99419.75;;;29.66;47.09
69855;BME280;57146;48.140;16.304;2023-06-22T12:28:01;99407.63;;;29.71;47.62
69855;BME280;57146;48.140;16.304;2023-06-22T12:30:32;99414.91;;;29.74;47.25
69855;BME280;57146;48.140;16.304;2023-06-22T12:32:59;99418.50;;;29.71;47.56
69855;BME280;57146;48.140;16.304;2023-06-22T12:35:27;99416.94;;;29.70;47.96
69855;BME280;57146;48.140;16.304;2023-06-22T12:37:54;99412.03;;;29.65;47.86
69855;BME280;57146;48.140;16.304;2023-06-22T12:40:21;99409.66;;;29.67;48.26
69855;BME280;57146;48.140;16.304;2023-06-22T12:42:48;99403.47;;;29.66;47.56
69855;BME280;57146;48.140;16.304;2023-06-22T12:45:16;99399.59;;;29.67;48.10
69855;BME280;57146;48.140;16.304;2023-06-22T12:47:44;99399.50;;;29.71;48.27
69855;BME280;57146;48.140;16.304;2023-06-22T12:50:12;99394.00;;;29.74;46.78
69855;BME280;57146;48.140;16.304;2023-06-22T12:52:40;99397.88;;;29.73;47.10
69855;BME280;57146;48.140;16.304;2023-06-22T12:55:08;99384.22;;;29.77;47.27
69855;BME280;57146;48.140;16.304;2023-06-22T12:57:35;99385.94;;;29.71;47.84
69855;BME280;57146;48.140;16.304;2023-06-22T13:00:26;99385.84;;;29.74;47.78
69855;BME280;57146;48.140;16.304;2023-06-22T13:02:54;99377.72;;;29.74;47.43